Página principal
METAR-TAF:

METAR-TAF

Aeroportos :

Ilha da Boa Vista, Cabo Verde

Aeroporto Internacional Aristides Pereira

latitude: 16-08-15N, longitude: 22-53-22W, altura: 21 m

Observação actual do tempo

O boletim foi feito há 57 minutos, às 12:00 UTC
Vento 20 kt de nor-nordeste
Temperatura 24°C
Humidade 61%
Pressão 1016 hPa
Visibilidade 10 km ou mais
Nuvens dispersasa uma altura de 1400 ft
Nuvens dispersasa uma altura de 20000 ft

METAR: GVBA 161200Z 02020KT 9999 SCT014 SCT200 24/16 Q1016 NOSIG

Hora: 11:57 (12:57 UTC)

Previsão

O boletim foi feito há 1 hora e 57 minutos, às 11:00 UTC
Previsão válida de 16 às 12 UTC a 17 às 18 UTC
Vento 22 kt de nor-nordeste
Visibilidade 10 km ou mais
Nuvens dispersasa uma altura de 1400 ft
Temporariamente
de 16 às 22 UTC a 17 às 06 UTC
Vento 12 kt de nor-nordeste

TAF: GVBA 161100Z 1612/1718 03022KT 9999 SCT014 TEMPO 1622/1706 02012KT

Observações e previsões do tempo de mais de 4000 aeroportos (mensagens METAR e TAF).

As estações disponíveis são os pontos amarelos e vermelhos sobre o mapa.

Mova o rato sobre o mapa para ver o nome da estação.

Depois clique no ponto para visualizar as observações e previsões meteorológicas.

Para alterar o mapa : clique nos botões verdes com uma cruz preta para aumentar o zoom; no botão verde com uma pitada de zoom; ou nas setas verdes para mapas adjacentes.


METAR-TAF: